Time;durP1;ratioP1;P1;durP2;ratioP2;P2;SDS_P1;SDS_P2;PMS_P1;PMS_P2;Temp;Humidity;BMP_temperature;BMP_pressure;BME280_temperature;BME280_humidity;BME280_pressure;Samples;Min_cycle;Max_cycle;Signal;HPM_P1;HPM_P2
2022/03/31 00:00:28;;;;;;;3.03;0.90;;;3.90;99.90;;;;;;5071707;28;20044;-75
2022/03/31 00:02:58;;;;;;;3.88;1.23;;;4.90;99.90;;;;;;5071659;28;20127;-75
2022/03/31 00:05:23;;;;;;;3.85;1.33;;;4.20;99.90;;;;;;5071576;28;20043;-75
2022/03/31 00:07:52;;;;;;;2.55;0.98;;;3.80;99.90;;;;;;5071490;28;20492;-75
2022/03/31 00:10:32;;;;;;;4.93;1.63;;;5.00;99.90;;;;;;5054800;28;20052;-75
2022/03/31 00:12:59;;;;;;;6.10;2.00;;;3.70;99.90;;;;;;5054910;28;20063;-75
2022/03/31 00:15:27;;;;;;;6.38;2.00;;;3.90;99.90;;;;;;5054735;28;20037;-74
2022/03/31 00:17:54;;;;;;;6.25;2.92;;;3.90;99.90;;;;;;5054729;28;20372;-74
2022/03/31 00:20:20;;;;;;;5.43;2.97;;;3.90;99.90;;;;;;5054965;28;20484;-74
2022/03/31 00:22:45;;;;;;;4.93;3.25;;;3.80;99.90;;;;;;5054623;28;20041;-74
2022/03/31 00:25:11;;;;;;;5.30;3.40;;;3.80;99.90;;;;;;5071384;28;20085;-75
2022/03/31 00:27:41;;;;;;;8.98;4.13;;;3.90;99.90;;;;;;5071546;28;20045;-75
2022/03/31 00:30:09;;;;;;;7.15;2.80;;;4.00;99.90;;;;;;5071232;28;20095;-74
2022/03/31 00:32:36;;;;;;;5.50;2.50;;;3.80;99.90;;;;;;5071281;28;20040;-74
2022/03/31 00:35:02;;;;;;;4.43;2.55;;;4.20;99.90;;;;;;5071039;28;20139;-74
2022/03/31 00:37:28;;;;;;;5.93;1.73;;;3.90;99.90;;;;;;5071257;28;20045;-74
2022/03/31 00:39:55;;;;;;;5.32;1.23;;;3.80;99.90;;;;;;5054536;28;20415;-75
2022/03/31 00:42:21;;;;;;;3.83;0.98;;;3.70;99.90;;;;;;5054491;28;20127;-75
2022/03/31 00:44:48;;;;;;;2.70;1.13;;;4.00;99.90;;;;;;5072108;28;20093;-75
2022/03/31 00:47:15;;;;;;;4.03;1.10;;;3.90;99.90;;;;;;5058761;28;20044;-74
2022/03/31 00:49:41;;;;;;;3.50;1.20;;;4.00;99.90;;;;;;5075060;28;20075;-75
2022/03/31 00:52:07;;;;;;;2.17;1.00;;;4.00;99.90;;;;;;5058686;28;20041;-74
2022/03/31 00:54:34;;;;;;;1.85;1.20;;;4.00;99.90;;;;;;5075385;28;20044;-75
2022/03/31 00:57:03;;;;;;;2.22;1.40;;;3.70;99.90;;;;;;5075010;28;20033;-75
2022/03/31 00:59:30;;;;;;;5.57;1.90;;;3.70;99.90;;;;;;5058548;28;20423;-75
2022/03/31 01:01:57;;;;;;;5.72;2.60;;;3.80;99.90;;;;;;5058567;28;20103;-75
2022/03/31 01:04:23;;;;;;;3.47;2.25;;;3.80;99.90;;;;;;5074900;28;20040;-75
2022/03/31 01:06:49;;;;;;;4.57;2.40;;;4.20;99.90;;;;;;5058045;28;20043;-76
2022/03/31 01:09:15;;;;;;;8.00;2.55;;;3.80;99.90;;;;;;5041493;28;20299;-76
2022/03/31 01:14:09;;;;;;;7.32;3.15;;;3.70;99.90;;;;;;5074312;28;20573;-73
2022/03/31 01:17:00;;;;;;;5.25;2.97;;;3.80;99.90;;;;;;5089379;22;21436;-73
2022/03/31 01:19:26;;;;;;;5.85;2.58;;;4.20;99.90;;;;;;5039404;28;20060;-73
2022/03/31 01:21:51;;;;;;;4.80;2.50;;;3.70;99.90;;;;;;5041526;28;20134;-74
2022/03/31 01:24:18;;;;;;;6.32;3.03;;;3.60;99.90;;;;;;5041182;28;20047;-74
2022/03/31 01:26:45;;;;;;;4.28;2.20;;;3.70;99.90;;;;;;5024841;28;20079;-74
2022/03/31 01:29:11;;;;;;;5.82;2.20;;;3.70;99.90;;;;;;5041474;28;20044;-74
2022/03/31 01:31:39;;;;;;;3.58;2.05;;;4.50;99.90;;;;;;5058222;28;20113;-74
2022/03/31 01:34:07;;;;;;;2.67;1.27;;;3.60;99.90;;;;;;5041151;28;20052;-74
2022/03/31 01:36:33;;;;;;;3.85;1.50;;;3.80;99.90;;;;;;5057907;28;20044;-74
2022/03/31 01:38:59;;;;;;;5.20;1.30;;;3.80;99.90;;;;;;5024931;28;20040;-74
2022/03/31 01:41:25;;;;;;;5.60;1.92;;;3.80;99.90;;;;;;5057885;28;20040;-74
2022/03/31 01:43:51;;;;;;;5.65;2.08;;;3.60;99.90;;;;;;5041039;28;20040;-74
2022/03/31 01:46:17;;;;;;;2.85;1.20;;;3.70;99.90;;;;;;5057417;28;20037;-74
2022/03/31 01:48:42;;;;;;;3.72;1.80;;;3.70;99.90;;;;;;5040890;28;20037;-74
2022/03/31 01:51:08;;;;;;;3.53;1.50;;;3.70;99.90;;;;;;5040804;28;20043;-74
2022/03/31 01:53:37;;;;;;;4.15;1.40;;;3.60;99.90;;;;;;5040729;28;20043;-74
2022/03/31 01:56:03;;;;;;;7.97;1.77;;;3.50;99.90;;;;;;5056978;28;20068;-73
2022/03/31 01:58:29;;;;;;;4.55;1.67;;;3.40;99.90;;;;;;5040414;28;20093;-74
2022/03/31 02:00:55;;;;;;;10.40;1.88;;;3.70;99.90;;;;;;5040413;28;20044;-74
2022/03/31 02:03:22;;;;;;;5.85;2.13;;;3.80;99.90;;;;;;5057028;28;20048;-74
2022/03/31 02:05:48;;;;;;;6.30;1.80;;;3.40;99.90;;;;;;5057336;28;20491;-74
2022/03/31 02:08:14;;;;;;;4.22;2.10;;;3.40;99.90;;;;;;5040361;28;20047;-74
2022/03/31 02:10:39;;;;;;;3.33;1.83;;;3.60;99.90;;;;;;5040350;28;20048;-74
2022/03/31 02:13:07;;;;;;;3.60;2.22;;;3.60;99.90;;;;;;5024268;28;20394;-74
2022/03/31 02:15:34;;;;;;;6.38;2.35;;;3.40;99.90;;;;;;5056889;28;20055;-74
2022/03/31 02:18:02;;;;;;;5.82;3.10;;;3.40;99.90;;;;;;5028071;28;20045;-74
2022/03/31 02:20:30;;;;;;;3.50;2.63;;;3.90;99.90;;;;;;5017181;28;20045;-74
2022/03/31 02:23:00;;;;;;;4.30;3.10;;;3.60;99.90;;;;;;5017013;28;20053;-74
2022/03/31 02:25:27;;;;;;;6.60;3.38;;;3.50;99.90;;;;;;5033834;28;20049;-74
2022/03/31 02:27:53;;;;;;;6.07;3.38;;;3.60;99.90;;;;;;5033446;28;20119;-74
2022/03/31 02:30:21;;;;;;;5.82;3.75;;;3.40;99.90;;;;;;5016848;28;20052;-74
2022/03/31 02:32:47;;;;;;;6.82;3.70;;;3.50;99.90;;;;;;5033311;28;20042;-74
2022/03/31 02:35:13;;;;;;;9.27;3.72;;;3.50;99.90;;;;;;5033408;28;20265;-74
2022/03/31 02:37:39;;;;;;;8.05;4.00;;;3.50;99.90;;;;;;5016858;28;20042;-74
2022/03/31 02:40:06;;;;;;;6.53;4.18;;;3.40;99.90;;;;;;5033222;28;20492;-74
2022/03/31 02:42:32;;;;;;;7.75;4.32;;;3.20;99.90;;;;;;5016961;28;20048;-74
2022/03/31 02:44:58;;;;;;;10.05;4.40;;;3.60;99.90;;;;;;5033105;28;20149;-74
2022/03/31 02:47:24;;;;;;;9.27;4.70;;;3.70;99.90;;;;;;5016957;28;20559;-74
2022/03/31 02:49:50;;;;;;;6.20;4.75;;;3.60;99.90;;;;;;5032945;28;20042;-74
2022/03/31 02:52:15;;;;;;;8.07;5.40;;;3.60;99.90;;;;;;5033066;28;20033;-74
2022/03/31 02:57:25;;;;;;;7.75;5.10;;;3.60;99.90;;;;;;5032884;28;20088;-74
2022/03/31 02:59:51;;;;;;;7.68;5.88;;;3.50;99.90;;;;;;5032865;28;20041;-74
2022/03/31 03:02:17;;;;;;;7.45;5.70;;;3.40;99.90;;;;;;5032839;28;20558;-74
2022/03/31 03:04:43;;;;;;;9.50;6.22;;;3.90;99.90;;;;;;5033019;28;20123;-74
2022/03/31 03:07:09;;;;;;;8.27;6.00;;;3.60;99.90;;;;;;5016555;28;20045;-74
2022/03/31 03:09:36;;;;;;;8.48;5.93;;;3.50;99.90;;;;;;5031812;28;20041;-74
2022/03/31 03:12:03;;;;;;;6.60;5.82;;;3.50;99.90;;;;;;5032642;28;20121;-74
2022/03/31 03:14:29;;;;;;;6.13;5.10;;;3.40;99.90;;;;;;5032799;28;20124;-75
2022/03/31 03:16:54;;;;;;;7.75;6.28;;;3.60;99.90;;;;;;5015957;28;20132;-74
2022/03/31 03:19:20;;;;;;;7.22;5.70;;;3.70;99.90;;;;;;5033837;28;20052;-74
2022/03/31 03:21:46;;;;;;;7.95;5.57;;;3.60;99.90;;;;;;5019538;28;20048;-74
2022/03/31 03:24:11;;;;;;;6.15;5.20;;;3.60;99.90;;;;;;5019494;28;20047;-74
2022/03/31 03:26:37;;;;;;;6.90;5.63;;;3.00;99.90;;;;;;5035673;28;20078;-74
2022/03/31 03:29:03;;;;;;;6.20;5.25;;;3.60;99.90;;;;;;5035701;28;20076;-74
2022/03/31 03:31:28;;;;;;;6.13;5.13;;;3.70;99.90;;;;;;5019102;28;20151;-74
2022/03/31 03:33:54;;;;;;;6.57;5.88;;;3.50;99.90;;;;;;5035208;28;20036;-74
2022/03/31 03:36:20;;;;;;;6.57;5.65;;;3.60;99.90;;;;;;5035722;28;20594;-74
2022/03/31 03:38:46;;;;;;;6.15;5.32;;;3.70;99.90;;;;;;5035661;28;20167;-74
2022/03/31 03:41:13;;;;;;;6.45;5.22;;;3.50;99.90;;;;;;5035390;28;20040;-74
2022/03/31 03:43:40;;;;;;;7.60;5.40;;;3.80;99.90;;;;;;5035151;28;20119;-74
2022/03/31 03:46:05;;;;;;;7.63;5.65;;;3.40;99.90;;;;;;5002922;28;20521;-74
2022/03/31 03:48:31;;;;;;;5.70;4.78;;;3.50;99.90;;;;;;5035117;28;20037;-74
2022/03/31 03:50:57;;;;;;;5.68;4.53;;;3.40;99.90;;;;;;5035276;28;20037;-74
2022/03/31 03:53:23;;;;;;;6.40;4.68;;;3.50;99.90;;;;;;5035276;28;20165;-74
2022/03/31 03:55:49;;;;;;;5.40;4.90;;;4.20;99.90;;;;;;5051803;28;20048;-74
2022/03/31 03:58:15;;;;;;;6.07;5.15;;;3.40;99.90;;;;;;5051866;28;20047;-74
2022/03/31 04:00:41;;;;;;;6.70;4.85;;;3.40;99.90;;;;;;5051707;28;20044;-74
2022/03/31 04:03:07;;;;;;;6.97;4.53;;;3.50;99.90;;;;;;5051639;28;20100;-74
2022/03/31 04:05:33;;;;;;;5.68;4.20;;;3.60;99.90;;;;;;5002292;28;20095;-74
2022/03/31 04:07:58;;;;;;;6.93;5.15;;;3.30;99.90;;;;;;5034882;28;20041;-74
2022/03/31 04:10:24;;;;;;;7.25;4.32;;;3.40;99.90;;;;;;5002042;28;20072;-74
2022/03/31 04:12:50;;;;;;;5.93;4.68;;;3.30;99.90;;;;;;5018476;28;20057;-74
2022/03/31 04:15:16;;;;;;;7.50;4.80;;;3.40;99.90;;;;;;5035182;28;20048;-74
2022/03/31 04:17:43;;;;;;;5.68;4.22;;;3.40;99.90;;;;;;5051394;28;20119;-74
2022/03/31 04:20:11;;;;;;;6.68;5.25;;;3.30;99.90;;;;;;5034678;28;20496;-74
2022/03/31 04:22:37;;;;;;;6.07;4.95;;;3.30;99.90;;;;;;5034838;28;20178;-74
2022/03/31 04:25:07;;;;;;;6.38;4.88;;;3.40;99.90;;;;;;5018417;28;20049;-74
2022/03/31 04:27:34;;;;;;;8.10;6.53;;;3.10;99.90;;;;;;5034882;28;20519;-74
2022/03/31 04:30:02;;;;;;;6.28;5.38;;;3.80;99.90;;;;;;5018495;28;20048;-74
2022/03/31 04:32:28;;;;;;;7.50;5.85;;;3.20;99.90;;;;;;5034602;28;20052;-74
2022/03/31 04:34:54;;;;;;;8.52;5.85;;;4.10;99.90;;;;;;5034872;28;20436;-74
2022/03/31 04:37:20;;;;;;;11.70;6.15;;;3.30;99.90;;;;;;5034590;28;20095;-74
2022/03/31 04:39:45;;;;;;;10.02;7.10;;;3.70;99.90;;;;;;5034748;28;20037;-74
2022/03/31 04:42:11;;;;;;;10.43;6.43;;;3.30;99.90;;;;;;5034632;28;20047;-74
2022/03/31 04:44:39;;;;;;;11.23;6.70;;;3.30;99.90;;;;;;5034700;28;20110;-74
2022/03/31 04:47:06;;;;;;;9.90;6.43;;;3.10;99.90;;;;;;5034345;28;20080;-74
2022/03/31 04:49:33;;;;;;;10.52;7.57;;;3.20;99.90;;;;;;5034389;28;20048;-74
2022/03/31 04:51:59;;;;;;;10.80;7.47;;;3.30;99.90;;;;;;5018071;28;20120;-74
2022/03/31 04:54:25;;;;;;;8.38;6.38;;;3.70;99.90;;;;;;5034342;28;20070;-74
2022/03/31 04:56:50;;;;;;;9.98;7.13;;;3.40;99.90;;;;;;5051301;28;20095;-74
2022/03/31 04:59:16;;;;;;;10.43;7.40;;;3.60;99.90;;;;;;5034516;28;20037;-74
2022/03/31 05:01:42;;;;;;;8.90;6.82;;;3.40;99.90;;;;;;5034566;28;20129;-73
2022/03/31 05:04:09;;;;;;;8.57;6.65;;;3.40;99.90;;;;;;5034824;28;20056;-73
2022/03/31 05:06:35;;;;;;;8.43;6.53;;;3.20;99.90;;;;;;5034355;28;20037;-73
2022/03/31 05:09:02;;;;;;;9.10;7.70;;;3.20;99.90;;;;;;5034300;28;20045;-73
2022/03/31 05:11:27;;;;;;;10.70;7.57;;;3.40;99.90;;;;;;5017835;28;20041;-73
2022/03/31 05:13:53;;;;;;;9.65;7.55;;;3.40;99.90;;;;;;5017879;28;20067;-73
2022/03/31 05:16:19;;;;;;;9.90;6.50;;;3.20;99.90;;;;;;5017993;28;20391;-74
2022/03/31 05:18:46;;;;;;;8.63;7.05;;;3.20;99.90;;;;;;5033925;28;20057;-74
2022/03/31 05:21:12;;;;;;;8.85;7.18;;;3.30;99.90;;;;;;5001695;28;20053;-74
2022/03/31 05:23:37;;;;;;;9.98;7.25;;;3.60;99.90;;;;;;5017995;28;20052;-74
2022/03/31 05:26:03;;;;;;;9.43;7.22;;;3.40;99.90;;;;;;5017683;28;20076;-73
2022/03/31 05:28:30;;;;;;;9.10;7.55;;;3.20;99.90;;;;;;5001444;28;20129;-73
2022/03/31 05:30:56;;;;;;;9.05;7.32;;;3.30;99.90;;;;;;5034141;28;20590;-73
2022/03/31 05:33:21;;;;;;;9.02;7.18;;;4.00;99.90;;;;;;5020954;28;20056;-73
2022/03/31 05:35:47;;;;;;;9.88;6.65;;;4.00;99.90;;;;;;5021252;28;20480;-73
2022/03/31 05:38:13;;;;;;;10.32;7.28;;;3.40;99.90;;;;;;5037658;28;20040;-74
2022/03/31 05:40:39;;;;;;;9.85;7.07;;;3.40;99.90;;;;;;5037809;28;20124;-72
2022/03/31 05:43:04;;;;;;;8.57;7.00;;;4.00;99.90;;;;;;5020986;28;20132;-71
2022/03/31 05:45:30;;;;;;;7.50;6.10;;;3.30;99.90;;;;;;5037829;28;20037;-71
2022/03/31 05:47:56;;;;;;;7.95;6.88;;;3.30;99.90;;;;;;5037853;28;20048;-70
2022/03/31 05:50:22;;;;;;;8.73;6.18;;;3.30;99.90;;;;;;5021036;28;20484;-72
2022/03/31 05:52:47;;;;;;;6.32;5.57;;;3.40;99.90;;;;;;5021433;28;20063;-72
2022/03/31 05:55:16;;;;;;;7.13;5.93;;;3.40;99.90;;;;;;5037826;28;20051;-72
2022/03/31 05:57:43;;;;;;;8.13;6.20;;;3.20;99.90;;;;;;5021038;28;20045;-71
2022/03/31 06:00:12;;;;;;;7.25;5.85;;;3.40;99.90;;;;;;5021554;28;20048;-71
2022/03/31 06:02:38;;;;;;;7.10;5.93;;;3.30;99.90;;;;;;5037296;28;20128;-71
2022/03/31 06:05:05;;;;;;;6.15;5.50;;;3.20;99.90;;;;;;5037417;28;20048;-72
2022/03/31 06:07:30;;;;;;;6.10;5.50;;;3.30;99.90;;;;;;5037514;28;20041;-71
2022/03/31 06:09:56;;;;;;;6.10;5.40;;;3.30;99.90;;;;;;5020625;28;20091;-72
2022/03/31 06:12:22;;;;;;;6.15;5.40;;;3.30;99.90;;;;;;5020880;28;20029;-71
2022/03/31 06:14:47;;;;;;;6.55;5.85;;;3.40;99.90;;;;;;5037024;28;20037;-71
2022/03/31 06:17:13;;;;;;;7.63;6.03;;;3.20;99.90;;;;;;5037350;28;20602;-72
2022/03/31 06:19:39;;;;;;;7.00;6.03;;;3.20;99.90;;;;;;5037328;28;20103;-73
2022/03/31 06:22:05;;;;;;;6.47;5.45;;;3.30;99.90;;;;;;5037460;28;20076;-73
2022/03/31 06:24:30;;;;;;;6.85;5.78;;;3.40;99.90;;;;;;5037318;28;20044;-73
2022/03/31 06:26:57;;;;;;;6.20;5.55;;;3.30;99.90;;;;;;5036944;28;20036;-73
2022/03/31 06:29:25;;;;;;;7.15;6.45;;;3.30;99.90;;;;;;5036737;28;20280;-71
2022/03/31 06:31:53;;;;;;;7.43;6.15;;;3.40;99.90;;;;;;5020774;28;20127;-72
2022/03/31 06:34:19;;;;;;;6.93;6.22;;;3.20;99.90;;;;;;5036774;28;20044;-73
2022/03/31 06:36:45;;;;;;;6.65;5.95;;;3.20;99.90;;;;;;5020477;28;20396;-73
2022/03/31 06:39:11;;;;;;;6.95;6.25;;;3.30;99.90;;;;;;5003809;28;20044;-73
2022/03/31 06:41:37;;;;;;;8.05;7.05;;;3.10;99.90;;;;;;5036600;28;20045;-73
2022/03/31 06:44:02;;;;;;;8.10;6.97;;;3.30;99.90;;;;;;5020131;28;20092;-73
2022/03/31 06:46:29;;;;;;;6.95;5.95;;;3.20;99.90;;;;;;5036293;28;20043;-73
2022/03/31 06:48:55;;;;;;;7.32;6.22;;;4.10;99.90;;;;;;5036745;28;20052;-73
2022/03/31 06:51:20;;;;;;;9.27;6.65;;;3.50;99.90;;;;;;5020037;28;20481;-73
2022/03/31 06:53:46;;;;;;;7.78;6.57;;;3.10;99.90;;;;;;5036561;28;20068;-73
2022/03/31 06:56:18;;;;;;;7.68;6.88;;;3.50;99.90;;;;;;5020180;28;20041;-73
2022/03/31 06:58:44;;;;;;;8.25;7.32;;;3.20;99.90;;;;;;5020035;28;20051;-73
2022/03/31 07:01:11;;;;;;;8.30;7.35;;;3.30;99.90;;;;;;5052725;28;20041;-73
2022/03/31 07:03:37;;;;;;;9.93;7.68;;;3.30;99.90;;;;;;5052998;28;20410;-73
2022/03/31 07:06:02;;;;;;;8.73;7.78;;;3.30;99.90;;;;;;5052666;28;20128;-73
2022/03/31 07:08:28;;;;;;;10.63;8.60;;;4.10;99.90;;;;;;5052446;28;20133;-73
2022/03/31 07:10:54;;;;;;;10.30;8.88;;;3.20;99.90;;;;;;5035767;28;20427;-72
2022/03/31 07:13:19;;;;;;;10.82;9.38;;;3.20;99.90;;;;;;5052416;28;20040;-73
2022/03/31 07:15:45;;;;;;;11.63;9.98;;;3.10;99.90;;;;;;5035733;28;20040;-73
2022/03/31 07:18:11;;;;;;;12.38;10.13;;;3.20;99.90;;;;;;5052557;28;20091;-72
2022/03/31 07:20:37;;;;;;;19.40;11.20;;;3.80;99.90;;;;;;5052940;28;20153;-73
2022/03/31 07:23:03;;;;;;;15.73;10.43;;;3.60;99.90;;;;;;5035643;28;20172;-73
2022/03/31 07:25:29;;;;;;;18.23;11.05;;;3.30;99.90;;;;;;5052177;28;20056;-73
2022/03/31 07:27:55;;;;;;;20.27;11.10;;;3.40;99.90;;;;;;5018968;28;20040;-73
2022/03/31 07:30:22;;;;;;;11.43;10.18;;;3.40;99.90;;;;;;5051935;28;20067;-73
2022/03/31 07:32:54;;;;;;;10.35;9.27;;;3.40;99.90;;;;;;5035439;28;20063;-73
2022/03/31 07:35:21;;;;;;;;;;;3.40;99.90;;;;;;5052695;28;20499;-73
2022/03/31 07:37:48;;;;;;;19.48;10.38;;;4.40;99.90;;;;;;5035228;28;19971;-73
2022/03/31 07:40:14;;;;;;;12.52;9.60;;;3.90;99.90;;;;;;5051951;28;20500;-73
2022/03/31 07:42:40;;;;;;;10.15;8.90;;;3.40;99.90;;;;;;5051785;28;20069;-73
2022/03/31 07:45:06;;;;;;;11.70;9.10;;;3.80;99.90;;;;;;5018791;28;20041;-73
2022/03/31 07:47:32;;;;;;;9.32;8.30;;;3.50;99.90;;;;;;5034969;28;20059;-73
2022/03/31 07:49:57;;;;;;;8.98;7.45;;;3.50;99.90;;;;;;5018453;28;20044;-73
2022/03/31 07:52:23;;;;;;;9.23;8.15;;;3.30;99.90;;;;;;5035110;28;20052;-73
2022/03/31 07:54:49;;;;;;;8.75;7.85;;;3.70;99.90;;;;;;5034227;28;20044;-73
2022/03/31 07:57:16;;;;;;;8.48;7.05;;;3.70;99.90;;;;;;5002056;28;20041;-73
2022/03/31 07:59:41;;;;;;;7.85;7.05;;;3.50;99.90;;;;;;5018274;28;20037;-73
2022/03/31 08:02:08;;;;;;;9.27;7.32;;;3.50;99.90;;;;;;5035066;28;20045;-73
2022/03/31 08:04:34;;;;;;;8.80;7.00;;;3.50;99.90;;;;;;5034720;28;20488;-73
2022/03/31 08:07:00;;;;;;;7.45;6.60;;;3.60;99.90;;;;;;5018214;28;20099;-73
2022/03/31 08:09:26;;;;;;;9.40;7.03;;;3.50;99.90;;;;;;5017903;28;20087;-73
2022/03/31 08:11:52;;;;;;;8.70;6.65;;;3.50;99.90;;;;;;5018186;28;20040;-74
2022/03/31 08:14:19;;;;;;;9.25;6.63;;;3.50;99.90;;;;;;5034530;28;20041;-74
2022/03/31 08:16:50;;;;;;;8.38;6.50;;;3.40;99.90;;;;;;5017912;28;20120;-73
2022/03/31 08:19:17;;;;;;;7.40;6.05;;;3.40;99.90;;;;;;5034388;28;20056;-73
2022/03/31 08:21:44;;;;;;;7.88;6.20;;;3.40;99.90;;;;;;5034582;28;20045;-74
2022/03/31 08:24:11;;;;;;;7.03;5.43;;;3.30;99.90;;;;;;5034993;28;20076;-74
2022/03/31 08:26:37;;;;;;;6.30;5.65;;;3.50;99.90;;;;;;5034758;28;20041;-74
2022/03/31 08:29:04;;;;;;;4.97;4.13;;;3.20;99.90;;;;;;5034680;28;20045;-74
2022/03/31 08:31:30;;;;;;;6.22;3.72;;;3.30;99.90;;;;;;5034575;28;20444;-74
2022/03/31 08:33:56;;;;;;;5.57;4.35;;;3.60;99.90;;;;;;5034654;28;20079;-74
2022/03/31 08:36:22;;;;;;;5.93;4.65;;;3.20;99.90;;;;;;5002117;28;20096;-72
2022/03/31 08:38:48;;;;;;;5.32;4.43;;;3.30;99.90;;;;;;5034487;28;20041;-74
2022/03/31 08:41:16;;;;;;;6.47;3.85;;;3.20;99.90;;;;;;5034477;28;20041;-74
2022/03/31 08:43:42;;;;;;;5.25;4.30;;;3.20;99.90;;;;;;5018327;28;20037;-74
2022/03/31 08:46:10;;;;;;;4.82;3.95;;;3.20;99.90;;;;;;5001812;28;20044;-74
2022/03/31 08:48:39;;;;;;;4.85;3.83;;;3.20;99.90;;;;;;5034692;28;20534;-74
2022/03/31 08:51:05;;;;;;;5.80;4.07;;;3.40;99.90;;;;;;5017829;28;20048;-74
2022/03/31 08:53:34;;;;;;;4.88;3.85;;;3.10;99.90;;;;;;5034538;28;20037;-74
2022/03/31 08:56:00;;;;;;;5.30;4.13;;;3.50;99.90;;;;;;5034466;28;20037;-74
2022/03/31 08:58:26;;;;;;;4.60;3.92;;;3.10;99.90;;;;;;5018062;28;20059;-74
2022/03/31 09:00:52;;;;;;;4.90;4.00;;;2.90;99.90;;;;;;5034626;28;20104;-74
2022/03/31 09:03:18;;;;;;;4.80;3.67;;;3.00;99.90;;;;;;5034598;28;20496;-74
2022/03/31 09:05:46;;;;;;;6.45;3.65;;;3.00;99.90;;;;;;5035217;28;20103;-74
2022/03/31 09:08:13;;;;;;;4.68;3.63;;;3.00;99.90;;;;;;5005581;28;20049;-74
2022/03/31 09:10:44;;;;;;;4.50;3.65;;;2.90;99.90;;;;;;5038119;28;20040;-74
2022/03/31 09:13:40;;;;;;;4.25;3.03;;;2.80;99.90;;;;;;5038381;28;20104;-74
2022/03/31 09:16:11;;;;;;;3.58;2.80;;;2.80;99.90;;;;;;5036391;28;20053;-74
2022/03/31 09:18:38;;;;;;;4.78;3.10;;;2.80;99.90;;;;;;5029499;28;20061;-74
2022/03/31 09:21:07;;;;;;;5.93;3.63;;;3.40;99.90;;;;;;5037805;28;20100;-74
2022/03/31 09:23:41;;;;;;;6.35;4.20;;;2.60;99.90;;;;;;5021489;28;20037;-74
2022/03/31 09:26:11;;;;;;;5.32;4.30;;;2.80;99.90;;;;;;5021276;28;20045;-74
2022/03/31 09:28:38;;;;;;;5.22;3.90;;;2.80;99.90;;;;;;5038415;28;20510;-74
2022/03/31 09:31:05;;;;;;;4.93;4.10;;;2.80;99.90;;;;;;5021269;28;20049;-74
2022/03/31 09:33:45;;;;;;;6.07;5.13;;;2.80;99.90;;;;;;5005305;28;20068;-73
2022/03/31 09:36:19;;;;;;;5.93;4.50;;;2.80;99.90;;;;;;5037504;28;20041;-74
2022/03/31 09:38:56;;;;;;;5.63;4.32;;;2.80;99.90;;;;;;5037866;28;20052;-73
2022/03/31 09:41:31;;;;;;;7.80;5.78;;;2.70;99.90;;;;;;5020937;28;20049;-74
2022/03/31 09:43:59;;;;;;;5.93;4.70;;;2.80;99.90;;;;;;5020998;28;20041;-74
2022/03/31 09:46:35;;;;;;;6.78;5.13;;;2.80;99.90;;;;;;5021005;28;20098;-74
2022/03/31 09:49:17;;;;;;;7.30;5.65;;;2.70;99.90;;;;;;5020807;28;20045;-74
2022/03/31 09:51:54;;;;;;;7.05;4.70;;;2.70;99.90;;;;;;5037374;28;20041;-73
2022/03/31 09:54:26;;;;;;;6.00;4.95;;;2.60;99.90;;;;;;5037420;28;20036;-74
2022/03/31 09:56:52;;;;;;;6.22;5.05;;;2.90;99.90;;;;;;5037333;28;20033;-74
2022/03/31 09:59:19;;;;;;;7.38;5.30;;;2.50;99.90;;;;;;5037218;28;20044;-75
2022/03/31 10:01:45;;;;;;;6.75;5.60;;;2.30;99.90;;;;;;5037185;28;20123;-72
2022/03/31 10:04:13;;;;;;;5.75;4.70;;;2.30;99.90;;;;;;5036980;28;20037;-74
2022/03/31 10:06:41;;;;;;;6.35;5.00;;;2.40;99.90;;;;;;5020661;28;20037;-72
2022/03/31 10:09:08;;;;;;;6.07;4.80;;;2.30;99.90;;;;;;5037022;28;20041;-72
2022/03/31 10:11:42;;;;;;;6.72;4.93;;;2.30;99.90;;;;;;5020409;28;20483;-72
2022/03/31 10:15:02;;;;;;;6.28;4.80;;;2.40;99.90;;;;;;5037001;28;20037;-72
2022/03/31 10:17:31;;;;;;;6.35;5.20;;;2.20;99.90;;;;;;4973356;28;20102;-72
2022/03/31 10:20:11;;;;;;;6.00;5.00;;;2.10;99.90;;;;;;5002785;28;20061;-73
2022/03/31 10:25:20;;;;;;;6.20;5.10;;;1.80;99.90;;;;;;5016927;28;20050;-74
2022/03/31 10:27:47;;;;;;;6.50;5.03;;;2.40;99.90;;;;;;5033415;28;20535;-72
2022/03/31 10:30:18;;;;;;;5.70;4.85;;;2.00;99.90;;;;;;5016815;28;20106;-74
2022/03/31 10:32:56;;;;;;;6.25;5.18;;;1.90;99.90;;;;;;5033442;28;20041;-74
2022/03/31 10:35:30;;;;;;;6.32;4.65;;;2.00;99.90;;;;;;5016781;28;20046;-73
2022/03/31 10:37:57;;;;;;;6.85;4.65;;;1.90;99.90;;;;;;5016805;28;20037;-73
2022/03/31 10:40:35;;;;;;;5.70;4.95;;;1.80;99.90;;;;;;5016957;28;20488;-73
2022/03/31 10:43:02;;;;;;;7.10;4.30;;;1.90;99.90;;;;;;5016918;28;20037;-74
2022/03/31 10:45:37;;;;;;;5.53;4.65;;;1.90;99.90;;;;;;5016611;28;20052;-73
2022/03/31 10:48:18;;;;;;;7.47;5.60;;;1.80;99.90;;;;;;5016491;28;20049;-74
2022/03/31 10:50:45;;;;;;;6.38;4.90;;;1.80;99.90;;;;;;5016478;28;20045;-73
2022/03/31 10:53:11;;;;;;;7.00;5.20;;;1.90;99.90;;;;;;5016467;28;20033;-74
2022/03/31 10:55:40;;;;;;;6.13;5.00;;;1.80;99.90;;;;;;5032912;28;20116;-73
2022/03/31 10:58:18;;;;;;;8.40;6.35;;;1.80;99.90;;;;;;5016299;28;20060;-72
2022/03/31 11:00:43;;;;;;;6.85;5.28;;;2.60;99.90;;;;;;5016551;28;20519;-73
2022/03/31 11:03:10;;;;;;;8.15;5.90;;;1.80;99.90;;;;;;5000290;28;20080;-72
2022/03/31 11:05:38;;;;;;;10.18;6.88;;;1.70;99.90;;;;;;5016293;28;20080;-73
2022/03/31 11:08:07;;;;;;;9.18;6.93;;;1.80;99.90;;;;;;4999893;28;20045;-73
2022/03/31 11:10:45;;;;;;;9.35;7.68;;;1.90;99.90;;;;;;5016134;28;20055;-73
2022/03/31 11:13:12;;;;;;;10.45;8.07;;;2.00;99.90;;;;;;5015886;28;20077;-73
2022/03/31 11:15:38;;;;;;;10.00;7.95;;;2.10;99.90;;;;;;5008264;28;20041;-73
2022/03/31 11:18:04;;;;;;;9.65;7.22;;;2.00;99.90;;;;;;5015415;28;20100;-73
2022/03/31 11:20:30;;;;;;;8.90;7.22;;;1.80;99.90;;;;;;5016283;28;20504;-73
2022/03/31 11:23:00;;;;;;;8.80;7.10;;;1.80;99.90;;;;;;4999549;28;20076;-73
2022/03/31 11:25:27;;;;;;;7.53;6.10;;;1.70;99.90;;;;;;5015953;28;20492;-72
2022/03/31 11:27:53;;;;;;;8.60;6.50;;;1.80;99.90;;;;;;4999544;28;20052;-73
2022/03/31 11:30:20;;;;;;;7.93;6.00;;;1.80;99.90;;;;;;5014661;28;20132;-73
2022/03/31 11:32:50;;;;;;;8.07;6.22;;;1.70;99.90;;;;;;4983231;28;20049;-73
2022/03/31 11:35:19;;;;;;;6.97;5.97;;;1.70;99.90;;;;;;5015735;28;20120;-73
2022/03/31 11:37:52;;;;;;;6.60;5.60;;;2.00;99.90;;;;;;5015588;28;20073;-73
2022/03/31 11:40:22;;;;;;;7.55;6.25;;;1.70;99.90;;;;;;4999047;28;20037;-73
2022/03/31 11:42:49;;;;;;;7.05;5.78;;;1.80;99.90;;;;;;5015622;28;20080;-71
2022/03/31 11:45:22;;;;;;;7.50;5.80;;;1.80;99.90;;;;;;5015424;28;20119;-71
2022/03/31 11:48:03;;;;;;;7.57;6.20;;;1.80;99.90;;;;;;5015236;28;20047;-71
2022/03/31 11:50:30;;;;;;;6.60;5.40;;;1.90;99.90;;;;;;5015589;28;20532;-71
2022/03/31 11:52:56;;;;;;;6.68;5.40;;;1.90;99.90;;;;;;4999275;28;20480;-71
2022/03/31 11:55:22;;;;;;;7.57;6.28;;;1.80;99.90;;;;;;4998965;28;20033;-71
2022/03/31 11:57:58;;;;;;;7.25;5.75;;;1.90;99.90;;;;;;4998975;28;20511;-71
2022/03/31 12:00:26;;;;;;;7.68;6.35;;;2.00;99.90;;;;;;4999244;28;20496;-71
2022/03/31 12:03:06;;;;;;;6.82;5.78;;;2.00;99.90;;;;;;5015257;28;20045;-72
2022/03/31 12:05:32;;;;;;;10.75;6.25;;;1.90;99.90;;;;;;5015362;28;20497;-71
2022/03/31 12:08:01;;;;;;;10.02;7.10;;;1.70;99.90;;;;;;5015244;28;20048;-71
2022/03/31 12:10:30;;;;;;;8.38;6.95;;;1.80;99.90;;;;;;5015082;28;20045;-71
2022/03/31 12:12:59;;;;;;;9.63;6.80;;;1.80;99.90;;;;;;5014904;28;20037;-72
2022/03/31 12:15:31;;;;;;;9.88;6.68;;;1.70;99.90;;;;;;5015048;28;20064;-72
2022/03/31 12:18:05;;;;;;;8.43;7.03;;;1.80;99.90;;;;;;5015399;28;20120;-71
2022/03/31 12:20:33;;;;;;;10.90;7.75;;;1.90;99.90;;;;;;5035190;28;20404;-71
2022/03/31 12:22:59;;;;;;;8.70;7.78;;;1.80;99.90;;;;;;5051298;28;20044;-72
2022/03/31 12:25:36;;;;;;;11.18;8.25;;;1.80;99.90;;;;;;5034682;28;20095;-72
2022/03/31 12:28:09;;;;;;;9.55;8.02;;;1.90;99.90;;;;;;5035028;28;20412;-72
2022/03/31 12:30:43;;;;;;;10.80;9.13;;;1.90;99.90;;;;;;5034733;28;20044;-72
2022/03/31 12:33:27;;;;;;;13.45;9.55;;;1.90;99.90;;;;;;5034446;28;20048;-72
2022/03/31 12:36:02;;;;;;;11.38;9.57;;;1.90;99.90;;;;;;5018359;28;20439;-72
2022/03/31 12:38:48;;;;;;;13.70;10.52;;;2.10;99.90;;;;;;5034904;28;20404;-72
2022/03/31 12:41:22;;;;;;;11.68;9.75;;;2.00;99.90;;;;;;5036618;28;20128;-73
2022/03/31 12:44:09;;;;;;;14.07;10.73;;;2.10;99.90;;;;;;5021935;28;20052;-73
2022/03/31 12:46:40;;;;;;;13.73;11.05;;;1.90;99.90;;;;;;5022013;28;20036;-72
2022/03/31 12:49:11;;;;;;;15.95;12.18;;;2.30;99.90;;;;;;5038606;28;20041;-73
2022/03/31 12:51:45;;;;;;;15.77;11.93;;;2.20;99.90;;;;;;5038434;28;20171;-73
2022/03/31 12:54:24;;;;;;;15.85;12.93;;;2.20;99.90;;;;;;5022031;28;20037;-73
2022/03/31 12:56:51;;;;;;;15.50;12.55;;;2.20;99.90;;;;;;5038519;28;20037;-72
2022/03/31 12:59:26;;;;;;;16.92;13.27;;;2.30;99.90;;;;;;5038659;28;20072;-72
2022/03/31 13:02:08;;;;;;;19.35;13.35;;;2.30;99.90;;;;;;5038425;28;20041;-73
2022/03/31 13:04:43;;;;;;;;;;;2.30;99.90;;;;;;5038390;28;20102;-74
2022/03/31 13:07:14;;;;;;;15.88;11.82;;;2.60;99.90;;;;;;5038558;28;20332;-72